createdAt,value
2018-05-24T00:00:41.245Z,11.83
2018-05-24T00:03:10.050Z,12.43
2018-05-24T00:05:38.959Z,13.17
2018-05-24T00:08:07.750Z,14.60
2018-05-24T00:10:36.630Z,12.90
2018-05-24T00:13:06.609Z,11.60
2018-05-24T00:15:35.413Z,15.03
2018-05-24T00:18:04.214Z,13.70
2018-05-24T00:20:33.529Z,12.47
2018-05-24T00:23:02.350Z,12.23
2018-05-24T00:25:31.241Z,14.13
2018-05-24T00:28:01.027Z,12.30
2018-05-24T00:30:29.824Z,10.83
2018-05-24T00:32:58.634Z,13.57
2018-05-24T00:35:27.699Z,11.40
2018-05-24T00:37:56.481Z,9.63
2018-05-24T00:40:25.310Z,11.83
2018-05-24T00:42:54.131Z,11.13
2018-05-24T00:45:22.934Z,10.57
2018-05-24T00:47:51.847Z,10.63
2018-05-24T00:50:20.734Z,11.90
2018-05-24T00:52:49.535Z,12.10
2018-05-24T00:55:24.350Z,12.57
2018-05-24T00:57:53.241Z,11.77
2018-05-24T01:00:22.033Z,14.53
2018-05-24T01:02:50.914Z,13.07
2018-05-24T01:05:19.731Z,12.53
2018-05-24T01:07:50.649Z,13.33
2018-05-24T01:10:19.538Z,12.37
2018-05-24T01:12:48.354Z,11.77
2018-05-24T01:15:17.260Z,13.40
2018-05-24T01:17:46.076Z,13.20
2018-05-24T01:20:14.870Z,14.53
2018-05-24T01:22:43.689Z,13.70
2018-05-24T01:25:12.586Z,13.10
2018-05-24T01:27:41.804Z,13.93
2018-05-24T01:30:10.646Z,12.20
2018-05-24T01:32:39.450Z,13.77
2018-05-24T01:35:08.372Z,12.77
2018-05-24T01:37:43.134Z,12.43
2018-05-24T01:40:12.181Z,12.37
2018-05-24T01:42:41.006Z,12.73
2018-05-24T01:45:09.848Z,11.23
2018-05-24T01:47:38.658Z,11.70
2018-05-24T01:50:07.498Z,15.17
2018-05-24T01:52:36.577Z,18.70
2018-05-24T01:55:05.438Z,14.47
2018-05-24T01:57:34.259Z,13.50
2018-05-24T02:00:03.093Z,14.43
2018-05-24T02:02:31.883Z,14.93
2018-05-24T02:05:00.791Z,17.63
2018-05-24T02:07:29.773Z,13.90
2018-05-24T02:10:00.098Z,15.37
2018-05-24T02:12:28.901Z,16.67
2018-05-24T02:14:57.785Z,14.47
2018-05-24T02:17:26.977Z,13.90
2018-05-24T02:19:55.870Z,11.80
2018-05-24T02:22:24.759Z,15.17
2018-05-24T02:24:53.567Z,15.60
2018-05-24T02:27:22.378Z,17.50
2018-05-24T02:29:51.642Z,16.50
2018-05-24T02:32:20.454Z,12.10
2018-05-24T02:34:49.328Z,14.20
2018-05-24T02:37:18.174Z,14.97
2018-05-24T02:39:47.000Z,14.30
2018-05-24T02:42:15.850Z,16.13
2018-05-24T02:44:44.784Z,15.47
2018-05-24T02:47:13.635Z,16.50
2018-05-24T02:49:42.449Z,15.33
2018-05-24T02:52:11.492Z,16.10
2018-05-24T02:54:40.351Z,19.40
2018-05-24T02:57:09.165Z,18.13
2018-05-24T02:59:38.028Z,20.80
2018-05-24T03:02:06.851Z,19.23
2018-05-24T03:04:35.634Z,14.20
2018-05-24T03:07:04.702Z,13.53
2018-05-24T03:09:34.963Z,12.47
2018-05-24T03:12:03.772Z,12.63
2018-05-24T03:14:32.800Z,15.00
2018-05-24T03:17:01.602Z,15.60
2018-05-24T03:19:30.478Z,11.13
2018-05-24T03:21:59.586Z,10.93
2018-05-24T03:24:28.474Z,10.87
2018-05-24T03:26:57.281Z,12.13
2018-05-24T03:29:26.513Z,14.87
2018-05-24T03:31:55.400Z,10.83
2018-05-24T03:34:24.107Z,10.80
2018-05-24T03:36:52.930Z,13.27
2018-05-24T03:39:21.860Z,16.47
2018-05-24T03:41:50.804Z,14.37
2018-05-24T03:44:19.605Z,14.97
2018-05-24T03:46:48.490Z,17.67
2018-05-24T03:49:17.511Z,18.77
2018-05-24T03:51:46.391Z,18.03
2018-05-24T03:54:15.186Z,14.67
2018-05-24T03:56:44.026Z,17.37
2018-05-24T03:59:32.557Z,15.70
2018-05-24T04:02:07.337Z,16.17
2018-05-24T04:04:42.043Z,18.67
2018-05-24T04:07:11.569Z,17.60
2018-05-24T04:09:41.693Z,20.27
2018-05-24T04:12:10.586Z,32.90
2018-05-24T04:14:39.469Z,68.50
2018-05-24T04:17:08.358Z,505.00
2018-05-24T04:19:37.440Z,1141.87
2018-05-24T04:22:06.264Z,1347.20
2018-05-24T04:24:35.137Z,905.77
2018-05-24T04:27:04.305Z,498.50
2018-05-24T04:29:33.034Z,517.80
2018-05-24T04:32:01.921Z,635.20
2018-05-24T04:34:30.671Z,429.47
2018-05-24T04:36:59.466Z,508.10
2018-05-24T04:39:28.290Z,487.40
2018-05-24T04:41:57.178Z,666.93
2018-05-24T04:44:26.071Z,347.17
2018-05-24T04:46:57.282Z,766.00
2018-05-24T04:49:26.310Z,128.80
2018-05-24T04:51:55.115Z,127.17
2018-05-24T04:54:23.915Z,97.57
2018-05-24T04:56:52.877Z,56.70
2018-05-24T04:59:21.764Z,18.23
2018-05-24T05:01:50.570Z,21.77
2018-05-24T05:04:19.965Z,15.20
2018-05-24T05:06:48.765Z,13.10
2018-05-24T05:09:17.570Z,13.93
2018-05-24T05:11:46.440Z,17.27
2018-05-24T05:14:15.331Z,15.63
2018-05-24T05:16:44.134Z,14.93
2018-05-24T05:19:12.998Z,14.47
2018-05-24T05:21:42.606Z,14.03
2018-05-24T05:24:11.597Z,20.23
2018-05-24T05:26:40.399Z,18.03
2018-05-24T05:29:09.306Z,20.80
2018-05-24T05:31:38.285Z,16.90
2018-05-24T05:34:07.081Z,17.37
2018-05-24T05:36:35.960Z,16.53
2018-05-24T05:39:05.766Z,17.27
2018-05-24T05:41:35.067Z,18.17
2018-05-24T05:44:03.872Z,17.00
2018-05-24T05:46:32.666Z,17.70
2018-05-24T05:49:01.739Z,17.60
2018-05-24T05:51:30.647Z,17.17
2018-05-24T05:53:59.538Z,18.30
2018-05-24T05:56:28.950Z,20.10
2018-05-24T05:58:57.761Z,19.23
2018-05-24T06:01:26.566Z,19.87
2018-05-24T06:03:55.411Z,18.00
2018-05-24T06:06:24.302Z,19.37
2018-05-24T06:08:53.726Z,22.17
2018-05-24T06:11:22.515Z,18.70
2018-05-24T06:13:51.381Z,18.97
2018-05-24T06:16:20.221Z,17.67
2018-05-24T06:18:49.429Z,18.17
2018-05-24T06:21:18.221Z,16.63
2018-05-24T06:23:47.465Z,18.67
2018-05-24T06:26:16.378Z,17.90
2018-05-24T06:28:45.183Z,17.57
2018-05-24T06:31:14.346Z,18.97
2018-05-24T06:33:43.146Z,18.03
2018-05-24T06:36:12.030Z,18.37
2018-05-24T06:38:41.223Z,18.77
2018-05-24T06:41:10.018Z,20.30
2018-05-24T06:43:38.903Z,17.13
2018-05-24T06:46:07.718Z,16.70
2018-05-24T06:48:36.517Z,16.83
2018-05-24T06:51:06.193Z,16.33
2018-05-24T06:53:35.072Z,17.57
2018-05-24T06:56:03.806Z,16.53
2018-05-24T06:58:32.645Z,15.53
2018-05-24T07:01:01.551Z,15.53
2018-05-24T07:03:30.650Z,15.30
2018-05-24T07:05:59.500Z,15.03
2018-05-24T07:08:28.255Z,12.23
2018-05-24T07:10:57.086Z,14.00
2018-05-24T07:13:25.880Z,13.70
2018-05-24T07:15:54.683Z,13.43
2018-05-24T07:18:23.551Z,12.73
2018-05-24T07:20:52.350Z,12.83
2018-05-24T07:23:21.156Z,11.73
2018-05-24T07:25:51.490Z,12.50
2018-05-24T07:28:20.298Z,12.67
2018-05-24T07:30:49.115Z,13.30
2018-05-24T07:33:17.960Z,12.87
2018-05-24T07:35:46.757Z,11.67
2018-05-24T07:38:15.558Z,12.40
2018-05-24T07:40:44.733Z,11.23
2018-05-24T07:43:13.620Z,11.67
2018-05-24T07:45:42.505Z,11.10
2018-05-24T07:48:11.413Z,10.43
2018-05-24T07:50:40.208Z,11.37
2018-05-24T07:53:09.589Z,11.47
2018-05-24T07:55:38.487Z,11.00
2018-05-24T07:58:07.390Z,11.50
2018-05-24T08:00:36.225Z,11.97
2018-05-24T08:03:05.025Z,10.57
2018-05-24T08:05:33.885Z,12.03
2018-05-24T08:08:02.740Z,11.03
2018-05-24T08:10:31.634Z,11.27
2018-05-24T08:13:00.788Z,11.33
2018-05-24T08:15:29.629Z,11.47
2018-05-24T08:17:58.423Z,12.63
2018-05-24T08:20:28.730Z,10.90
2018-05-24T08:22:57.521Z,10.93
2018-05-24T08:25:26.720Z,10.70
2018-05-24T08:27:56.346Z,9.93
2018-05-24T08:30:25.139Z,9.57
2018-05-24T08:32:54.001Z,10.23
2018-05-24T08:35:22.802Z,9.80
2018-05-24T08:37:52.618Z,9.80
2018-05-24T08:40:21.394Z,7.93
2018-05-24T08:42:50.197Z,9.33
2018-05-24T08:45:19.489Z,9.07
2018-05-24T08:47:48.289Z,9.17
2018-05-24T08:50:17.102Z,10.30
2018-05-24T08:52:45.919Z,10.93
2018-05-24T08:55:14.725Z,11.73
2018-05-24T08:57:43.840Z,11.10
2018-05-24T09:00:12.647Z,11.80
2018-05-24T09:02:41.463Z,11.57
2018-05-24T09:05:10.655Z,13.45
2018-05-24T09:07:39.505Z,10.95
2018-05-24T09:10:08.315Z,12.00
2018-05-24T09:12:37.546Z,10.63
2018-05-24T09:15:06.477Z,11.05
2018-05-24T09:17:35.505Z,9.73
2018-05-24T09:20:04.409Z,10.80
2018-05-24T09:22:33.191Z,10.57
2018-05-24T09:25:02.092Z,10.32
2018-05-24T09:27:30.882Z,10.18
2018-05-24T09:30:00.646Z,10.20
2018-05-24T09:32:29.959Z,10.98
2018-05-24T09:34:58.771Z,9.90
2018-05-24T09:37:27.642Z,9.93
2018-05-24T09:39:56.710Z,11.15
2018-05-24T09:42:25.556Z,8.88
2018-05-24T09:44:54.398Z,9.30
2018-05-24T09:47:24.216Z,10.10
2018-05-24T09:49:53.053Z,9.95
2018-05-24T09:52:23.153Z,9.70
2018-05-24T09:54:52.026Z,9.23
2018-05-24T09:57:20.887Z,10.45
2018-05-24T09:59:49.681Z,9.15
2018-05-24T10:02:18.654Z,10.45
2018-05-24T10:04:47.491Z,9.18
2018-05-24T10:07:16.377Z,9.05
2018-05-24T10:09:47.934Z,9.25
2018-05-24T10:12:16.723Z,9.70
2018-05-24T10:14:45.511Z,8.55
2018-05-24T10:17:14.807Z,8.80
2018-05-24T10:19:43.595Z,8.93
2018-05-24T10:22:12.382Z,9.23
2018-05-24T10:24:41.587Z,8.82
2018-05-24T10:27:10.378Z,8.77
2018-05-24T10:29:39.176Z,9.60
2018-05-24T10:32:08.150Z,7.90
2018-05-24T10:34:37.047Z,9.45
2018-05-24T10:37:05.881Z,9.88
2018-05-24T10:39:34.867Z,8.95
2018-05-24T10:42:03.634Z,8.45
2018-05-24T10:44:32.425Z,8.07
2018-05-24T10:47:01.578Z,8.15
2018-05-24T10:49:30.405Z,7.80
2018-05-24T10:51:59.293Z,8.80
2018-05-24T10:54:28.275Z,7.87
2018-05-24T10:56:57.067Z,8.30
2018-05-24T10:59:25.881Z,8.25
2018-05-24T11:01:54.668Z,8.57
2018-05-24T11:04:23.458Z,8.73
2018-05-24T11:06:52.725Z,8.02
2018-05-24T11:09:23.566Z,9.80
2018-05-24T11:11:52.455Z,7.72
2018-05-24T11:14:21.862Z,8.77
2018-05-24T11:16:50.770Z,11.07
2018-05-24T11:19:19.646Z,7.95
2018-05-24T11:21:51.110Z,7.37
2018-05-24T11:24:19.991Z,7.95
2018-05-24T11:26:49.499Z,9.40
2018-05-24T11:29:18.378Z,8.27
2018-05-24T11:31:47.230Z,8.82
2018-05-24T11:34:16.166Z,10.05
2018-05-24T11:36:45.067Z,8.88
2018-05-24T11:39:13.942Z,8.32
2018-05-24T11:41:42.758Z,8.15
2018-05-24T11:44:11.554Z,8.85
2018-05-24T11:46:40.837Z,8.25
2018-05-24T11:49:09.718Z,10.18
2018-05-24T11:51:38.607Z,10.80
2018-05-24T11:54:07.611Z,9.02
2018-05-24T11:56:36.497Z,8.70
2018-05-24T11:59:05.399Z,8.10
2018-05-24T12:01:34.688Z,8.02
2018-05-24T12:04:03.503Z,7.72
2018-05-24T12:06:32.304Z,7.80
2018-05-24T12:09:02.800Z,8.70
2018-05-24T12:11:31.602Z,9.63
2018-05-24T12:14:00.680Z,7.93
2018-05-24T12:16:29.473Z,8.25
2018-05-24T12:18:58.359Z,8.35
2018-05-24T12:21:27.188Z,13.40
2018-05-24T12:23:56.040Z,9.45
2018-05-24T12:26:25.299Z,10.43
2018-05-24T12:28:54.131Z,10.13
2018-05-24T12:31:22.942Z,10.20
2018-05-24T12:33:52.118Z,13.62
2018-05-24T12:36:20.927Z,11.18
2018-05-24T12:38:49.894Z,10.27
2018-05-24T12:41:19.043Z,11.32
2018-05-24T12:43:47.895Z,10.73
2018-05-24T12:46:16.796Z,10.80
2018-05-24T12:48:45.882Z,14.75
2018-05-24T12:51:14.690Z,13.18
2018-05-24T12:53:43.515Z,15.25
2018-05-24T12:56:12.422Z,6.35
2018-05-24T12:58:41.187Z,6.82
2018-05-24T13:01:10.025Z,12.70
2018-05-24T13:03:39.574Z,18.30
2018-05-24T13:06:08.432Z,18.42
2018-05-24T13:08:38.954Z,13.23
2018-05-24T13:11:08.279Z,10.60
2018-05-24T13:13:37.061Z,6.00
2018-05-24T13:16:05.863Z,8.82
2018-05-24T13:18:34.691Z,7.00
2018-05-24T13:21:03.478Z,8.10
2018-05-24T13:23:32.619Z,7.53
2018-05-24T13:26:01.419Z,7.63
2018-05-24T13:28:30.227Z,11.60
2018-05-24T13:30:59.092Z,12.20
2018-05-24T13:33:27.899Z,17.03
2018-05-24T13:35:56.762Z,19.60
2018-05-24T13:38:25.651Z,23.40
2018-05-24T13:40:54.630Z,23.83
2018-05-24T13:43:23.430Z,27.03
2018-05-24T13:45:52.234Z,32.50
2018-05-24T13:48:21.067Z,32.80
2018-05-24T13:50:49.907Z,26.00
2018-05-24T13:53:19.193Z,21.23
2018-05-24T13:55:48.102Z,20.63
2018-05-24T13:58:16.994Z,18.17
2018-05-24T14:00:45.799Z,16.67
2018-05-24T14:03:14.663Z,19.17
2018-05-24T14:05:44.386Z,37.27
2018-05-24T14:08:14.197Z,17.20
2018-05-24T14:10:43.182Z,19.60
2018-05-24T14:13:12.278Z,21.53
2018-05-24T14:15:41.171Z,23.93
2018-05-24T14:18:09.966Z,24.77
2018-05-24T14:20:39.059Z,26.77
2018-05-24T14:23:07.945Z,24.47
2018-05-24T14:25:36.758Z,24.10
2018-05-24T14:28:05.602Z,33.17
2018-05-24T14:30:34.411Z,29.03
2018-05-24T14:33:03.216Z,22.20
2018-05-24T14:35:32.680Z,20.60
2018-05-24T14:38:01.522Z,29.60
2018-05-24T14:40:30.385Z,27.80
2018-05-24T14:42:59.939Z,25.43
2018-05-24T14:45:28.738Z,26.37
2018-05-24T14:47:57.537Z,25.50
2018-05-24T14:50:26.661Z,27.67
2018-05-24T14:52:55.458Z,27.73
2018-05-24T14:55:24.276Z,28.07
2018-05-24T14:57:53.141Z,27.93
2018-05-24T15:00:22.025Z,25.30
2018-05-24T15:02:51.056Z,34.43
2018-05-24T15:05:19.826Z,30.97
2018-05-24T15:07:48.736Z,28.20
2018-05-24T15:10:18.139Z,25.57
2018-05-24T15:12:47.619Z,27.33
2018-05-24T15:15:16.435Z,23.53
2018-05-24T15:17:45.762Z,22.33
2018-05-24T15:20:14.598Z,24.77
2018-05-24T15:22:43.491Z,22.37
2018-05-24T15:25:12.287Z,17.87
2018-05-24T15:27:41.099Z,17.40
2018-05-24T15:30:09.918Z,16.90
2018-05-24T15:32:38.739Z,15.53
2018-05-24T15:35:08.071Z,19.57
2018-05-24T15:37:36.944Z,17.90
2018-05-24T15:40:05.829Z,18.50
2018-05-24T15:42:34.689Z,16.97
2018-05-24T15:45:03.494Z,17.53
2018-05-24T15:47:32.302Z,15.57
2018-05-24T15:50:01.311Z,13.47
2018-05-24T15:52:30.121Z,13.13
2018-05-24T15:54:58.967Z,15.30
2018-05-24T15:57:27.793Z,11.33
2018-05-24T15:59:56.596Z,13.07
2018-05-24T16:02:25.402Z,12.27
2018-05-24T16:04:54.241Z,13.37
2018-05-24T16:07:23.055Z,12.93
2018-05-24T16:09:51.839Z,12.00
2018-05-24T16:12:20.898Z,13.37
2018-05-24T16:14:50.596Z,12.57
2018-05-24T16:17:19.499Z,13.37
2018-05-24T16:19:48.339Z,15.53
2018-05-24T16:22:17.156Z,13.63
2018-05-24T16:24:45.960Z,13.37
2018-05-24T16:27:14.810Z,14.17
2018-05-24T16:29:43.638Z,17.80
2018-05-24T16:32:12.441Z,16.57
2018-05-24T16:34:41.745Z,15.43
2018-05-24T16:37:10.542Z,15.27
2018-05-24T16:39:39.340Z,16.30
2018-05-24T16:42:08.613Z,14.90
2018-05-24T16:44:37.419Z,15.07
2018-05-24T16:47:06.221Z,15.50
2018-05-24T16:49:35.097Z,14.53
2018-05-24T16:52:03.991Z,11.23
2018-05-24T16:54:32.916Z,11.37
2018-05-24T16:57:01.755Z,10.30
2018-05-24T16:59:30.546Z,11.60
2018-05-24T17:01:59.853Z,12.07
2018-05-24T17:04:28.663Z,14.03
2018-05-24T17:06:57.540Z,13.03
2018-05-24T17:09:27.955Z,13.30
2018-05-24T17:11:56.755Z,14.23
2018-05-24T17:14:25.665Z,15.40
2018-05-24T17:16:55.270Z,12.80
2018-05-24T17:19:24.391Z,12.97
2018-05-24T17:21:53.477Z,13.13
2018-05-24T17:24:22.495Z,12.13
2018-05-24T17:26:51.590Z,12.77
2018-05-24T17:29:20.737Z,13.40
2018-05-24T17:31:49.725Z,13.97
2018-05-24T17:34:19.658Z,14.57
2018-05-24T17:36:48.952Z,17.67
2018-05-24T17:39:17.785Z,19.73
2018-05-24T17:41:46.619Z,18.67
2018-05-24T17:44:16.029Z,17.17
2018-05-24T17:46:44.912Z,22.23
2018-05-24T17:49:13.747Z,21.13
2018-05-24T17:51:42.783Z,18.10
2018-05-24T17:54:11.582Z,20.57
2018-05-24T17:56:40.411Z,19.40
2018-05-24T17:59:09.658Z,15.40
2018-05-24T18:01:38.454Z,15.47
2018-05-24T18:04:07.266Z,14.90
2018-05-24T18:06:36.623Z,15.70
2018-05-24T18:09:06.567Z,14.73
2018-05-24T18:11:35.383Z,15.83
2018-05-24T18:14:04.875Z,16.47
2018-05-24T18:16:33.668Z,16.93
2018-05-24T18:19:02.476Z,16.97
2018-05-24T18:21:31.446Z,16.13
2018-05-24T18:24:00.255Z,30.13
2018-05-24T18:26:29.076Z,18.03
2018-05-24T18:28:57.919Z,16.80
2018-05-24T18:31:26.726Z,16.10
2018-05-24T18:33:55.536Z,17.13
2018-05-24T18:36:24.801Z,15.03
2018-05-24T18:38:53.619Z,14.13
2018-05-24T18:41:22.411Z,17.57
2018-05-24T18:43:52.279Z,16.23
2018-05-24T18:46:21.085Z,18.57
2018-05-24T18:48:49.882Z,19.53
2018-05-24T18:51:18.710Z,20.53
2018-05-24T18:53:47.507Z,16.83
2018-05-24T18:56:16.735Z,19.23
2018-05-24T18:58:45.551Z,22.77
2018-05-24T19:01:14.368Z,18.30
2018-05-24T19:03:43.170Z,21.53
2018-05-24T19:06:11.979Z,24.57
2018-05-24T19:08:42.825Z,18.50
2018-05-24T19:11:11.618Z,26.07
2018-05-24T19:13:40.431Z,27.67
2018-05-24T19:16:09.273Z,22.30
2018-05-24T19:18:38.078Z,25.07
2018-05-24T19:21:06.929Z,29.20
2018-05-24T19:23:35.738Z,23.37
2018-05-24T19:26:04.548Z,20.33
2018-05-24T19:28:33.787Z,25.30
2018-05-24T19:31:02.684Z,23.43
2018-05-24T19:33:31.484Z,21.03
2018-05-24T19:36:00.307Z,23.70
2018-05-24T19:38:29.214Z,138.57
2018-05-24T19:40:58.102Z,67.83
2018-05-24T19:43:26.910Z,1280.23
2018-05-24T19:45:55.798Z,643.83
2018-05-24T19:48:24.634Z,1413.80
2018-05-24T19:50:53.447Z,1999.90
2018-05-24T19:53:22.375Z,1456.83
2018-05-24T19:55:51.203Z,979.70
2018-05-24T19:58:20.059Z,176.83
2018-05-24T20:00:49.134Z,41.80
2018-05-24T20:03:17.943Z,37.10
2018-05-24T20:05:46.742Z,33.87
2018-05-24T20:08:18.175Z,33.27
2018-05-24T20:10:46.974Z,33.50
2018-05-24T20:13:15.810Z,39.40
2018-05-24T20:15:44.746Z,33.43
2018-05-24T20:18:13.559Z,38.10
2018-05-24T20:20:42.737Z,50.10
2018-05-24T20:23:11.526Z,36.67
2018-05-24T20:25:40.336Z,37.83
2018-05-24T20:28:09.903Z,44.17
2018-05-24T20:30:38.807Z,50.90
2018-05-24T20:33:07.603Z,38.57
2018-05-24T20:35:36.515Z,37.80
2018-05-24T20:38:05.363Z,47.53
2018-05-24T20:40:34.259Z,41.70
2018-05-24T20:43:03.148Z,36.20
2018-05-24T20:45:32.062Z,30.07
2018-05-24T20:48:00.868Z,37.63
2018-05-24T20:50:30.146Z,39.33
2018-05-24T20:52:59.042Z,31.87
2018-05-24T20:55:27.852Z,30.93
2018-05-24T20:57:56.666Z,43.30
2018-05-24T21:00:25.476Z,36.67
2018-05-24T21:02:55.714Z,39.20
2018-05-24T21:05:24.861Z,40.93
2018-05-24T21:07:54.833Z,42.10
2018-05-24T21:10:23.679Z,45.40
2018-05-24T21:12:52.519Z,38.50
2018-05-24T21:15:21.405Z,48.03
2018-05-24T21:17:50.390Z,38.20
2018-05-24T21:20:19.263Z,40.77
2018-05-24T21:22:48.083Z,39.10
2018-05-24T21:25:17.581Z,35.63
2018-05-24T21:27:46.387Z,38.57
2018-05-24T21:30:15.185Z,37.97
2018-05-24T21:32:44.032Z,42.53
2018-05-24T21:35:12.938Z,33.43
2018-05-24T21:37:41.847Z,32.83
2018-05-24T21:40:10.834Z,50.03
2018-05-24T21:42:39.722Z,32.67
2018-05-24T21:45:08.563Z,32.43
2018-05-24T21:47:37.906Z,29.57
2018-05-24T21:50:06.723Z,32.93
2018-05-24T21:52:35.533Z,27.30
2018-05-24T21:55:05.406Z,26.63
2018-05-24T21:57:34.307Z,32.93
2018-05-24T22:00:03.211Z,26.87
2018-05-24T22:02:32.039Z,27.07
2018-05-24T22:05:00.843Z,28.87
2018-05-24T22:07:30.235Z,25.00
2018-05-24T22:10:01.024Z,23.03
2018-05-24T22:12:29.845Z,25.37
2018-05-24T22:14:58.825Z,23.67
2018-05-24T22:17:27.629Z,27.70
2018-05-24T22:19:56.426Z,23.27
2018-05-24T22:22:25.286Z,27.63
2018-05-24T22:24:54.500Z,32.87
2018-05-24T22:27:23.305Z,24.07
2018-05-24T22:29:52.225Z,25.37
2018-05-24T22:32:21.050Z,27.90
2018-05-24T22:34:49.906Z,30.73
2018-05-24T22:37:19.006Z,27.57
2018-05-24T22:39:47.894Z,22.73
2018-05-24T22:42:16.783Z,28.63
2018-05-24T22:44:46.089Z,22.93
2018-05-24T22:47:14.979Z,26.70
2018-05-24T22:49:44.082Z,24.57
2018-05-24T22:52:12.873Z,24.67
2018-05-24T22:54:41.675Z,27.20
2018-05-24T22:57:10.538Z,27.43
2018-05-24T22:59:39.438Z,29.30
2018-05-24T23:02:08.258Z,21.50
2018-05-24T23:04:37.323Z,24.80
2018-05-24T23:07:06.214Z,21.67
2018-05-24T23:09:37.057Z,24.03
2018-05-24T23:12:06.250Z,30.43
2018-05-24T23:14:35.046Z,17.93
2018-05-24T23:17:03.864Z,26.07
2018-05-24T23:19:32.818Z,33.20
2018-05-24T23:22:01.634Z,29.53
2018-05-24T23:24:30.421Z,37.77
2018-05-24T23:26:59.661Z,29.93
2018-05-24T23:29:28.470Z,24.17
2018-05-24T23:31:57.286Z,69.43
2018-05-24T23:34:26.169Z,89.87
2018-05-24T23:36:54.966Z,63.23
2018-05-24T23:39:23.766Z,61.87
2018-05-24T23:41:52.941Z,64.13
2018-05-24T23:44:21.829Z,31.00
2018-05-24T23:46:50.727Z,24.17
2018-05-24T23:49:19.830Z,19.73
2018-05-24T23:51:48.709Z,25.20
2018-05-24T23:54:17.506Z,27.07
2018-05-24T23:56:46.599Z,49.40
2018-05-24T23:59:15.390Z,21.30
